createdAt,value
2022-08-09T01:12:32.669Z,13.20
2022-08-09T01:22:46.720Z,13.30
2022-08-09T01:26:30.184Z,10.40
2022-08-09T01:30:00.817Z,9.90
2022-08-09T01:36:47.049Z,28.60
2022-08-09T02:00:35.424Z,23.90
2022-08-09T02:21:07.214Z,13.30
2022-08-09T02:31:42.323Z,7.40
2022-08-09T03:05:39.069Z,5.10
2022-08-09T03:12:59.825Z,5.90
2022-08-09T03:16:23.485Z,4.70
2022-08-09T03:19:58.169Z,4.70
2022-08-09T03:23:31.266Z,4.50
2022-08-09T03:26:47.204Z,4.30
2022-08-09T03:30:23.648Z,4.80
2022-08-09T03:33:58.696Z,4.10
2022-08-09T03:37:55.242Z,4.10
2022-08-09T03:41:08.503Z,4.50
2022-08-09T03:44:37.842Z,4.90
2022-08-09T03:47:55.162Z,4.20
2022-08-09T03:51:57.643Z,3.90
2022-08-09T05:06:55.157Z,4.20
2022-08-09T05:10:23.749Z,4.20
2022-08-09T05:13:52.233Z,4.10
2022-08-09T05:18:42.265Z,4.70
2022-08-09T05:21:22.777Z,4.00
2022-08-09T05:24:53.581Z,3.70
2022-08-09T05:28:29.677Z,3.80
2022-08-09T05:31:57.065Z,4.00
2022-08-09T05:35:27.367Z,3.60
2022-08-09T05:38:57.862Z,4.20
2022-08-09T05:42:28.691Z,3.60
2022-08-09T05:45:58.827Z,4.50
2022-08-09T05:50:24.087Z,3.40
2022-08-09T06:51:54.742Z,3.30
2022-08-09T06:55:24.365Z,3.10
2022-08-09T07:00:56.409Z,3.30
2022-08-09T07:02:43.880Z,3.00
2022-08-09T07:06:04.705Z,3.20
2022-08-09T07:09:54.233Z,3.30
2022-08-09T07:13:28.237Z,3.10
2022-08-09T07:41:11.924Z,3.10
2022-08-09T08:01:52.842Z,2.80
2022-08-09T08:05:18.865Z,3.10
2022-08-09T08:09:04.567Z,3.10
2022-08-09T08:36:40.123Z,2.50
2022-08-09T08:40:09.172Z,2.60
2022-08-09T08:43:39.615Z,2.90
2022-08-09T08:47:05.074Z,2.60
2022-08-09T08:50:41.679Z,2.70
2022-08-09T08:54:20.570Z,2.60
2022-08-09T08:57:56.813Z,2.70
2022-08-09T09:26:03.013Z,2.40
2022-08-09T09:58:02.472Z,2.70
2022-08-09T10:01:02.638Z,2.40
2022-08-09T10:04:30.848Z,2.60
2022-08-09T10:08:27.382Z,2.80
2022-08-09T10:15:25.521Z,2.60
2022-08-09T10:22:33.403Z,2.50
2022-08-09T10:39:49.337Z,2.20
2022-08-09T10:46:55.045Z,2.40
2022-08-09T10:50:30.978Z,2.60
2022-08-09T10:54:05.190Z,2.20
2022-08-09T11:18:19.323Z,2.20
2022-08-09T11:25:02.436Z,2.10
2022-08-09T11:28:34.653Z,2.00
2022-08-09T11:32:19.019Z,2.50
2022-08-09T11:35:50.404Z,2.00
2022-08-09T11:39:13.393Z,2.40
2022-08-09T11:42:48.727Z,1.90
2022-08-09T11:46:33.135Z,2.10
2022-08-09T11:50:53.205Z,2.40
2022-08-09T11:54:04.275Z,2.40
2022-08-09T11:58:00.892Z,2.30
2022-08-09T12:02:18.306Z,2.40
2022-08-09T12:05:05.988Z,2.40
2022-08-09T12:19:25.429Z,2.40
2022-08-09T12:22:38.884Z,2.60
2022-08-09T12:26:19.760Z,2.70
2022-08-09T12:30:02.116Z,2.60
2022-08-09T12:33:59.113Z,2.10
2022-08-09T12:37:33.431Z,2.70
2022-08-09T13:04:45.554Z,2.10
2022-08-09T13:08:04.104Z,1.90
2022-08-09T13:11:23.384Z,2.00
2022-08-09T13:14:41.192Z,2.20
2022-08-09T13:18:02.982Z,2.30
2022-08-09T13:21:03.775Z,2.10
2022-08-09T13:24:42.214Z,2.20
2022-08-09T13:27:24.029Z,2.30
2022-08-09T13:30:51.001Z,2.80
2022-08-09T13:33:59.286Z,2.40
2022-08-09T13:36:43.415Z,2.50
2022-08-09T13:41:54.897Z,2.10
2022-08-09T13:43:05.217Z,2.40
2022-08-09T13:46:42.400Z,2.60
2022-08-09T13:48:57.402Z,2.30
2022-08-09T13:51:34.807Z,3.10
2022-08-09T13:54:05.570Z,3.80
2022-08-09T13:56:39.728Z,2.60
2022-08-09T13:59:37.100Z,2.40
2022-08-09T14:02:25.469Z,2.20
2022-08-09T14:06:01.185Z,2.50
2022-08-09T14:08:06.307Z,2.30
2022-08-09T14:10:50.372Z,2.60
2022-08-09T14:14:14.818Z,2.40
2022-08-09T14:16:54.510Z,2.50
2022-08-09T14:19:40.970Z,2.30
2022-08-09T14:22:48.106Z,2.10
2022-08-09T14:25:26.295Z,2.70
2022-08-09T14:28:16.305Z,2.70
2022-08-09T14:31:09.073Z,2.70
2022-08-09T14:33:57.542Z,2.20
2022-08-09T14:36:27.109Z,2.30
2022-08-09T14:39:08.290Z,2.10
2022-08-09T14:41:55.714Z,2.20
2022-08-09T14:45:00.244Z,2.30
2022-08-09T14:47:58.056Z,2.40
2022-08-09T14:50:37.076Z,2.40
2022-08-09T14:53:20.388Z,3.60
2022-08-09T14:56:04.549Z,3.50
2022-08-09T14:58:34.580Z,6.70
2022-08-09T15:01:47.013Z,3.50
2022-08-09T15:04:47.907Z,2.70
2022-08-09T15:08:06.423Z,2.60
2022-08-09T15:11:00.837Z,2.70
2022-08-09T15:14:04.363Z,2.90
2022-08-09T15:17:12.407Z,2.30
2022-08-09T15:20:06.414Z,2.10
2022-08-09T15:24:01.492Z,2.30
2022-08-09T15:26:31.191Z,2.00
2022-08-09T15:30:56.876Z,2.30
2022-08-09T15:32:42.089Z,2.20
2022-08-09T15:36:14.464Z,2.40
2022-08-09T15:39:53.769Z,2.60
2022-08-09T15:43:14.194Z,3.10
2022-08-09T15:46:43.658Z,2.40
2022-08-09T15:50:04.172Z,2.50
2022-08-09T15:54:05.731Z,2.70
2022-08-09T15:57:35.778Z,2.50
2022-08-09T16:49:16.869Z,2.80
2022-08-09T16:52:20.626Z,2.70
2022-08-09T16:56:00.381Z,2.80
2022-08-09T16:59:21.384Z,2.90
2022-08-09T17:02:48.631Z,3.00
2022-08-09T17:06:31.539Z,3.10
2022-08-09T17:10:02.211Z,3.20
2022-08-09T17:33:21.905Z,2.60
2022-08-09T17:46:40.332Z,2.90
2022-08-09T17:53:22.568Z,3.30
2022-08-09T17:56:51.279Z,3.80
2022-08-09T18:30:40.180Z,3.90
2022-08-09T18:52:44.469Z,4.80
2022-08-09T19:13:16.917Z,4.40
2022-08-09T19:16:42.343Z,4.70
2022-08-09T19:20:20.202Z,4.60
2022-08-09T19:24:33.390Z,4.40
2022-08-09T19:27:40.819Z,4.80
2022-08-09T19:31:00.598Z,4.90
2022-08-09T20:04:26.119Z,5.70
2022-08-09T20:21:56.415Z,5.70
2022-08-09T20:25:22.365Z,6.00
2022-08-09T20:28:34.462Z,5.80
2022-08-09T20:32:30.727Z,6.40
2022-08-09T20:36:06.044Z,5.80
2022-08-09T20:40:14.042Z,6.10
2022-08-09T20:49:46.099Z,5.90
2022-08-09T20:53:02.180Z,5.90
2022-08-09T20:56:21.045Z,6.30
2022-08-09T21:00:20.376Z,5.90
2022-08-09T21:03:28.766Z,6.10
2022-08-09T21:07:11.854Z,5.90
2022-08-09T21:10:42.652Z,5.80
2022-08-09T21:14:17.317Z,5.90
2022-08-09T21:18:24.502Z,6.20
2022-08-09T21:21:52.907Z,5.90
2022-08-09T21:25:12.953Z,5.50
2022-08-09T21:28:51.827Z,5.80
2022-08-09T21:32:33.350Z,6.10
2022-08-09T21:35:56.463Z,5.80
2022-08-09T21:39:42.144Z,5.70
2022-08-09T21:43:00.720Z,6.20
2022-08-09T21:46:29.279Z,5.90
2022-08-09T21:49:49.537Z,5.90
2022-08-09T21:53:15.557Z,6.70
2022-08-09T21:56:42.998Z,6.50
2022-08-09T22:00:16.497Z,6.10
2022-08-09T22:03:48.477Z,6.80
2022-08-09T22:07:41.841Z,6.50
2022-08-09T22:12:05.733Z,6.00
2022-08-09T22:15:03.817Z,5.80
2022-08-09T22:18:32.928Z,5.90
2022-08-09T22:22:01.890Z,5.70
2022-08-09T22:26:05.461Z,5.60
2022-08-09T22:29:12.388Z,6.30
2022-08-09T22:32:44.907Z,5.20
2022-08-09T22:36:13.436Z,5.90
2022-08-09T22:39:58.793Z,5.20
2022-08-09T22:44:02.505Z,6.50
2022-08-09T22:48:14.400Z,6.20
2022-08-09T22:51:10.334Z,6.20
2022-08-09T22:54:39.414Z,6.20
2022-08-09T22:58:09.819Z,6.00
2022-08-09T23:01:49.353Z,5.90
2022-08-09T23:05:18.140Z,6.10
2022-08-09T23:09:05.032Z,6.40
2022-08-09T23:12:33.752Z,6.20
